createdAt,value
2019-03-04T00:00:01.715Z,11.30
2019-03-04T00:02:30.974Z,11.30
2019-03-04T00:05:00.096Z,11.30
2019-03-04T00:07:29.315Z,11.30
2019-03-04T00:09:58.694Z,11.30
2019-03-04T00:12:27.863Z,11.40
2019-03-04T00:14:57.188Z,11.40
2019-03-04T00:17:26.283Z,11.50
2019-03-04T00:19:55.384Z,11.50
2019-03-04T00:22:24.537Z,11.60
2019-03-04T00:24:53.663Z,11.60
2019-03-04T00:27:22.823Z,11.60
2019-03-04T00:29:51.859Z,11.70
2019-03-04T00:32:20.948Z,11.70
2019-03-04T00:34:50.020Z,11.70
2019-03-04T00:37:19.376Z,11.80
2019-03-04T00:39:48.489Z,11.80
2019-03-04T00:42:17.579Z,11.80
2019-03-04T00:44:46.641Z,11.80
2019-03-04T00:47:15.752Z,11.90
2019-03-04T00:49:44.833Z,11.90
2019-03-04T00:52:13.998Z,11.90
2019-03-04T00:54:43.073Z,11.90
2019-03-04T00:57:12.180Z,11.90
2019-03-04T00:59:41.470Z,11.90
2019-03-04T01:02:29.936Z,11.90
2019-03-04T01:05:18.147Z,11.90
2019-03-04T01:08:06.628Z,11.80
2019-03-04T01:10:55.443Z,11.90
2019-03-04T01:13:43.979Z,11.90
2019-03-04T01:16:32.146Z,11.90
2019-03-04T01:19:20.610Z,11.90
2019-03-04T01:22:02.525Z,11.90
2019-03-04T01:24:43.406Z,12.00
2019-03-04T01:27:24.259Z,12.00
2019-03-04T01:30:05.072Z,12.00
2019-03-04T01:32:46.147Z,12.00
2019-03-04T01:35:27.049Z,12.00
2019-03-04T01:38:07.743Z,12.00
2019-03-04T01:40:48.778Z,12.00
2019-03-04T01:43:30.497Z,12.00
2019-03-04T01:46:11.839Z,12.10
2019-03-04T01:48:52.685Z,12.10
2019-03-04T01:51:34.064Z,12.20
2019-03-04T01:54:15.101Z,12.10
2019-03-04T01:56:55.972Z,12.20
2019-03-04T01:59:37.458Z,12.10
2019-03-04T02:02:17.865Z,12.20
2019-03-04T02:04:58.576Z,12.20
2019-03-04T02:07:39.992Z,12.20
2019-03-04T02:10:21.467Z,12.20
2019-03-04T02:13:02.431Z,12.20
2019-03-04T02:15:43.540Z,12.20
2019-03-04T02:18:24.819Z,12.10
2019-03-04T02:21:05.884Z,12.10
2019-03-04T02:23:46.783Z,12.10
2019-03-04T02:26:27.433Z,12.10
2019-03-04T02:29:08.366Z,12.10
2019-03-04T02:31:49.099Z,12.10
2019-03-04T02:34:29.750Z,12.10
2019-03-04T02:37:11.160Z,12.10
2019-03-04T02:39:52.280Z,12.10
2019-03-04T02:42:33.308Z,12.10
2019-03-04T02:45:14.461Z,12.10
2019-03-04T02:47:55.676Z,12.00
2019-03-04T02:50:36.385Z,12.00
2019-03-04T02:53:16.982Z,12.00
2019-03-04T02:55:57.804Z,12.00
2019-03-04T02:58:38.950Z,12.10
2019-03-04T03:01:20.360Z,12.20
2019-03-04T03:04:01.773Z,12.20
2019-03-04T03:06:42.703Z,12.30
2019-03-04T03:09:23.293Z,12.30
2019-03-04T03:12:04.489Z,12.30
2019-03-04T03:14:45.026Z,12.20
2019-03-04T03:17:26.150Z,12.30
2019-03-04T03:20:06.985Z,12.30
2019-03-04T03:22:47.628Z,12.40
2019-03-04T03:25:28.263Z,12.30
2019-03-04T03:28:09.630Z,12.40
2019-03-04T03:30:50.485Z,12.40
2019-03-04T03:33:31.237Z,12.40
2019-03-04T03:36:12.327Z,12.50
2019-03-04T03:38:52.763Z,12.50
2019-03-04T03:41:33.442Z,12.50
2019-03-04T03:44:14.317Z,12.50
2019-03-04T03:46:55.168Z,12.40
2019-03-04T03:49:35.995Z,12.40
2019-03-04T03:52:17.488Z,12.40
2019-03-04T03:54:58.407Z,12.40
2019-03-04T03:57:38.917Z,12.40
2019-03-04T04:00:19.704Z,12.40
2019-03-04T04:03:00.475Z,12.40
2019-03-04T04:05:40.973Z,12.40
2019-03-04T04:08:22.206Z,12.40
2019-03-04T04:11:03.804Z,12.40
2019-03-04T04:13:44.923Z,12.40
2019-03-04T04:16:25.988Z,12.40
2019-03-04T04:19:06.752Z,12.40
2019-03-04T04:21:47.227Z,12.30
2019-03-04T04:24:27.637Z,12.20
2019-03-04T04:27:08.644Z,12.20
2019-03-04T04:29:49.359Z,12.20
2019-03-04T04:32:29.751Z,12.10
2019-03-04T04:35:10.386Z,12.20
2019-03-04T04:37:51.424Z,12.10
2019-03-04T04:40:32.724Z,12.10
2019-03-04T04:43:14.126Z,12.10
2019-03-04T04:45:54.629Z,12.10
2019-03-04T04:48:35.715Z,12.10
2019-03-04T04:51:16.472Z,12.00
2019-03-04T04:53:57.683Z,12.00
2019-03-04T04:56:38.964Z,12.10
2019-03-04T04:59:20.195Z,12.00
2019-03-04T05:02:01.396Z,12.10
2019-03-04T05:04:42.399Z,12.00
2019-03-04T05:07:23.026Z,12.10
2019-03-04T05:10:04.155Z,12.10
2019-03-04T05:12:45.177Z,12.10
2019-03-04T05:15:25.883Z,12.10
2019-03-04T05:18:06.727Z,12.10
2019-03-04T05:20:48.035Z,12.00
2019-03-04T05:23:29.040Z,12.00
2019-03-04T05:26:09.751Z,12.00
2019-03-04T05:28:50.473Z,12.00
2019-03-04T05:31:31.746Z,12.00
2019-03-04T05:34:12.592Z,12.10
2019-03-04T05:36:53.351Z,12.10
2019-03-04T05:39:32.882Z,12.00
2019-03-04T05:42:21.110Z,12.00
2019-03-04T05:45:10.391Z,12.10
2019-03-04T05:47:58.620Z,12.10
2019-03-04T05:50:47.083Z,12.10
2019-03-04T05:53:35.635Z,12.10
2019-03-04T05:56:23.846Z,12.20
2019-03-04T06:02:20.747Z,12.20
2019-03-04T06:05:08.999Z,12.20
2019-03-04T06:10:54.929Z,12.20
2019-03-04T06:13:43.451Z,12.20
2019-03-04T06:16:31.666Z,12.20
2019-03-04T06:19:20.157Z,12.20
2019-03-04T06:22:08.417Z,12.30
2019-03-04T06:24:56.610Z,12.30
2019-03-04T06:27:45.139Z,12.20
2019-03-04T06:30:33.825Z,12.30
2019-03-04T06:33:22.346Z,12.30
2019-03-04T06:36:10.941Z,12.20
2019-03-04T06:38:59.801Z,12.20
2019-03-04T06:41:48.021Z,12.30
2019-03-04T06:44:36.202Z,12.10
2019-03-04T06:47:24.435Z,12.00
2019-03-04T06:50:31.805Z,12.00
2019-03-04T06:53:39.367Z,11.80
2019-03-04T06:56:30.387Z,11.50
2019-03-04T06:59:22.579Z,11.30
2019-03-04T07:01:55.136Z,11.20
2019-03-04T07:05:07.255Z,11.20
2019-03-04T07:07:36.443Z,11.20
2019-03-04T07:10:05.874Z,11.30
2019-03-04T07:12:34.962Z,11.40
2019-03-04T07:15:05.103Z,11.40
2019-03-04T07:17:34.210Z,11.50
2019-03-04T07:20:06.691Z,11.60
2019-03-04T07:22:36.203Z,11.60
2019-03-04T07:25:05.648Z,11.70
2019-03-04T07:27:34.919Z,11.80
2019-03-04T07:30:04.926Z,11.90
2019-03-04T07:32:34.451Z,11.90
2019-03-04T07:35:03.614Z,12.00
2019-03-04T07:37:33.425Z,12.10
2019-03-04T07:40:03.222Z,12.10
2019-03-04T07:42:32.346Z,12.20
2019-03-04T07:45:01.466Z,12.30
2019-03-04T07:47:30.574Z,12.30
2019-03-04T07:49:59.708Z,12.30
2019-03-04T07:52:28.808Z,12.30
2019-03-04T07:54:57.950Z,12.30
2019-03-04T07:57:27.049Z,12.40
2019-03-04T07:59:56.198Z,12.40
2019-03-04T08:02:25.326Z,12.40
2019-03-04T08:04:54.507Z,12.40
2019-03-04T08:07:37.945Z,12.40
2019-03-04T08:10:57.059Z,12.40
2019-03-04T08:13:42.750Z,12.50
2019-03-04T08:16:12.390Z,12.50
2019-03-04T08:18:41.670Z,12.70
2019-03-04T08:21:10.862Z,12.70
2019-03-04T08:23:40.378Z,12.90
2019-03-04T08:26:22.075Z,12.90
2019-03-04T08:28:51.201Z,12.90
2019-03-04T08:31:20.956Z,12.90
2019-03-04T08:33:50.066Z,13.00
2019-03-04T08:36:19.614Z,13.10
2019-03-04T08:38:48.835Z,13.10
2019-03-04T08:41:18.231Z,13.10
2019-03-04T08:43:47.837Z,13.00
2019-03-04T08:46:17.047Z,13.00
2019-03-04T08:48:46.243Z,13.00
2019-03-04T08:51:15.799Z,12.70
2019-03-04T08:53:45.021Z,11.70
2019-03-04T08:56:14.166Z,11.00
2019-03-04T08:58:43.368Z,10.30
2019-03-04T09:01:12.633Z,10.10
2019-03-04T09:03:42.042Z,10.20
2019-03-04T09:06:11.195Z,10.00
2019-03-04T09:08:40.611Z,10.00
2019-03-04T09:11:10.015Z,9.90
2019-03-04T09:13:39.139Z,9.90
2019-03-04T09:16:08.251Z,9.80
2019-03-04T09:18:37.371Z,9.80
2019-03-04T09:21:06.458Z,9.90
2019-03-04T09:23:35.880Z,10.00
2019-03-04T09:26:08.016Z,10.00
2019-03-04T09:28:37.158Z,10.20
2019-03-04T09:31:06.280Z,10.30
2019-03-04T09:33:37.690Z,10.40
2019-03-04T09:36:06.852Z,10.50
2019-03-04T09:38:36.268Z,10.60
2019-03-04T09:41:05.379Z,10.70
2019-03-04T09:43:35.154Z,10.80
2019-03-04T09:46:04.657Z,10.90
2019-03-04T09:48:33.800Z,11.00
2019-03-04T09:51:03.263Z,11.10
2019-03-04T09:53:39.364Z,11.20
2019-03-04T09:56:03.221Z,11.20
2019-03-04T09:58:32.925Z,11.10
2019-03-04T10:01:12.569Z,11.20
2019-03-04T10:04:08.245Z,11.30
2019-03-04T10:07:06.122Z,11.60
2019-03-04T10:09:57.418Z,12.00
2019-03-04T10:12:55.159Z,12.10
2019-03-04T10:15:40.994Z,12.00
2019-03-04T10:18:48.559Z,11.80
2019-03-04T10:21:42.782Z,11.70
2019-03-04T10:24:42.687Z,11.50
2019-03-04T10:28:03.823Z,11.50
2019-03-04T10:30:48.259Z,11.40
2019-03-04T10:33:52.084Z,11.00
2019-03-04T10:36:47.859Z,11.10
2019-03-04T10:39:41.165Z,10.90
2019-03-04T10:42:45.551Z,10.80
2019-03-04T10:45:40.185Z,10.90
2019-03-04T10:48:10.147Z,10.90
2019-03-04T10:50:39.327Z,10.90
2019-03-04T10:53:08.438Z,11.10
2019-03-04T10:55:42.070Z,11.10
2019-03-04T10:58:08.681Z,11.10
2019-03-04T11:00:38.244Z,11.20
2019-03-04T11:03:07.611Z,11.20
2019-03-04T11:05:37.044Z,11.20
2019-03-04T11:08:06.149Z,11.40
2019-03-04T11:10:35.607Z,11.40
2019-03-04T11:13:04.986Z,11.30
2019-03-04T11:15:34.109Z,11.50
2019-03-04T11:18:03.553Z,11.50
2019-03-04T11:20:33.079Z,11.50
2019-03-04T11:23:02.195Z,11.40
2019-03-04T11:25:31.850Z,11.20
2019-03-04T11:28:01.824Z,10.80
2019-03-04T11:30:32.757Z,10.50
2019-03-04T11:33:02.201Z,10.40
2019-03-04T11:35:31.742Z,10.40
2019-03-04T11:38:00.826Z,10.40
2019-03-04T11:40:32.734Z,10.40
2019-03-04T11:43:02.007Z,10.50
2019-03-04T11:45:33.566Z,10.50
2019-03-04T11:48:02.754Z,10.30
2019-03-04T11:50:32.985Z,10.20
2019-03-04T11:53:02.583Z,10.30
2019-03-04T11:55:32.229Z,10.40
2019-03-04T11:58:01.938Z,10.70
2019-03-04T12:00:39.573Z,10.80
2019-03-04T12:03:27.781Z,10.90
2019-03-04T12:05:57.201Z,10.90
2019-03-04T12:08:26.465Z,10.90
2019-03-04T12:10:55.909Z,10.90
2019-03-04T12:13:25.588Z,10.80
2019-03-04T12:15:55.334Z,10.80
2019-03-04T12:18:24.616Z,10.70
2019-03-04T12:20:53.875Z,10.50
2019-03-04T12:23:23.464Z,10.50
2019-03-04T12:25:53.665Z,10.40
2019-03-04T12:28:23.865Z,10.10
2019-03-04T12:30:53.326Z,10.10
2019-03-04T12:33:22.523Z,10.10
2019-03-04T12:35:51.754Z,10.40
2019-03-04T12:38:20.859Z,10.90
2019-03-04T12:40:50.661Z,11.10
2019-03-04T12:43:21.141Z,11.10
2019-03-04T12:45:50.944Z,11.10
2019-03-04T12:48:20.644Z,11.10
2019-03-04T12:50:50.093Z,10.80
2019-03-04T12:53:19.666Z,10.60
2019-03-04T12:55:48.896Z,10.70
2019-03-04T12:58:19.596Z,10.60
2019-03-04T13:00:48.764Z,10.70
2019-03-04T13:03:37.021Z,10.90
2019-03-04T13:06:06.168Z,10.90
2019-03-04T13:08:54.657Z,10.90
2019-03-04T13:11:42.929Z,10.80
2019-03-04T13:14:31.156Z,10.30
2019-03-04T13:17:19.382Z,9.80
2019-03-04T13:19:48.760Z,9.40
2019-03-04T13:22:36.995Z,9.00
2019-03-04T13:25:25.221Z,8.80
2019-03-04T13:28:13.621Z,8.70
2019-03-04T13:31:02.169Z,8.70
2019-03-04T13:33:50.376Z,8.70
2019-03-04T13:36:38.582Z,8.80
2019-03-04T13:39:27.041Z,9.00
2019-03-04T13:42:15.250Z,9.20
2019-03-04T13:45:03.567Z,9.30
2019-03-04T13:47:45.075Z,9.40
2019-03-04T13:50:26.580Z,9.30
2019-03-04T13:53:07.504Z,9.40
2019-03-04T13:55:47.890Z,9.40
2019-03-04T13:58:28.752Z,9.30
2019-03-04T14:01:09.485Z,9.40
2019-03-04T14:03:50.479Z,9.30
2019-03-04T14:06:31.386Z,9.30
2019-03-04T14:09:12.278Z,9.30
2019-03-04T14:11:52.954Z,9.30
2019-03-04T14:14:33.844Z,9.30
2019-03-04T14:17:15.213Z,9.40
2019-03-04T14:19:55.625Z,9.50
2019-03-04T14:22:40.373Z,9.40
2019-03-04T14:28:32.433Z,9.50
2019-03-04T14:31:13.082Z,9.60
2019-03-04T14:33:53.771Z,9.60
2019-03-04T14:36:34.665Z,9.60
2019-03-04T14:42:12.776Z,9.60
2019-03-04T14:44:41.876Z,9.70
2019-03-04T14:47:30.366Z,9.80
2019-03-04T14:50:18.599Z,9.80
2019-03-04T14:53:06.828Z,9.90
2019-03-04T14:55:55.091Z,9.90
2019-03-04T14:58:43.315Z,10.00
2019-03-04T15:01:24.640Z,10.00
2019-03-04T15:04:05.760Z,9.90
2019-03-04T15:06:46.759Z,9.80
2019-03-04T15:09:27.436Z,9.80
2019-03-04T15:12:08.504Z,9.70
2019-03-04T15:14:48.904Z,9.60
2019-03-04T15:17:29.693Z,9.50
2019-03-04T15:20:10.756Z,9.30
2019-03-04T15:22:52.026Z,9.10
2019-03-04T15:25:33.660Z,9.00
2019-03-04T15:28:15.252Z,8.80
2019-03-04T15:30:55.867Z,8.80
2019-03-04T15:33:37.035Z,8.70
2019-03-04T15:36:17.392Z,8.60
2019-03-04T15:38:58.133Z,8.50
2019-03-04T15:41:40.447Z,8.50
2019-03-04T15:44:09.722Z,8.50
2019-03-04T15:46:57.992Z,8.30
2019-03-04T15:49:46.918Z,8.20
2019-03-04T15:52:35.122Z,8.40
2019-03-04T15:55:23.719Z,8.40
2019-03-04T15:58:12.025Z,8.50
2019-03-04T16:01:00.372Z,8.50
2019-03-04T16:03:49.029Z,8.50
2019-03-04T16:06:37.560Z,8.40
2019-03-04T16:12:22.593Z,8.20
2019-03-04T16:15:11.931Z,8.20
2019-03-04T16:17:41.613Z,8.20
2019-03-04T16:20:29.835Z,8.20
2019-03-04T16:23:18.070Z,8.10
2019-03-04T16:26:25.583Z,8.10
2019-03-04T16:29:13.816Z,8.10
2019-03-04T16:32:02.022Z,8.10
2019-03-04T16:34:50.312Z,8.00
2019-03-04T16:37:38.524Z,8.00
2019-03-04T16:40:26.773Z,8.10
2019-03-04T16:43:15.067Z,8.10
2019-03-04T16:45:45.237Z,8.00
2019-03-04T16:48:33.495Z,8.00
2019-03-04T16:51:21.976Z,8.00
2019-03-04T16:54:10.178Z,7.90
2019-03-04T16:56:58.377Z,7.90
2019-03-04T16:59:46.617Z,7.90
2019-03-04T17:02:34.907Z,7.90
2019-03-04T17:05:15.938Z,8.00
2019-03-04T17:07:56.949Z,7.90
2019-03-04T17:10:37.776Z,7.80
2019-03-04T17:13:18.493Z,7.70
2019-03-04T17:15:59.735Z,7.80
2019-03-04T17:18:29.211Z,7.70
2019-03-04T17:21:17.411Z,7.70
2019-03-04T17:24:05.638Z,7.70
2019-03-04T17:26:54.119Z,7.70
2019-03-04T17:29:42.455Z,7.60
2019-03-04T17:32:30.648Z,7.50
2019-03-04T17:35:18.953Z,7.40
2019-03-04T17:37:48.903Z,7.50
2019-03-04T17:40:37.111Z,7.50
2019-03-04T17:43:25.545Z,7.50
2019-03-04T17:46:13.783Z,7.50
2019-03-04T17:49:02.020Z,7.50
2019-03-04T17:51:50.466Z,7.50
2019-03-04T17:54:38.678Z,7.50
2019-03-04T17:57:26.861Z,7.40
2019-03-04T18:03:11.349Z,7.30
2019-03-04T18:05:52.199Z,7.20
2019-03-04T18:08:32.551Z,7.20
2019-03-04T18:11:13.672Z,7.30
2019-03-04T18:13:54.731Z,7.20
2019-03-04T18:16:35.575Z,7.10
2019-03-04T18:19:16.804Z,7.10
2019-03-04T18:21:57.837Z,7.10
2019-03-04T18:24:38.711Z,7.10
2019-03-04T18:27:19.767Z,7.30
2019-03-04T18:30:00.858Z,7.20
2019-03-04T18:32:41.375Z,7.20
2019-03-04T18:35:22.092Z,7.30
2019-03-04T18:38:03.674Z,7.30
2019-03-04T18:40:44.990Z,7.20
2019-03-04T18:43:26.268Z,7.30
2019-03-04T18:46:07.281Z,7.30
2019-03-04T18:48:47.722Z,7.30
2019-03-04T18:51:28.925Z,7.30
2019-03-04T18:54:09.627Z,7.30
2019-03-04T18:56:50.539Z,7.30
2019-03-04T18:59:31.721Z,7.30
2019-03-04T19:02:00.952Z,7.20
2019-03-04T19:04:49.471Z,7.20
2019-03-04T19:07:37.915Z,7.20
2019-03-04T19:10:26.484Z,7.10
2019-03-04T19:13:14.952Z,7.10
2019-03-04T19:16:03.187Z,7.10
2019-03-04T19:18:51.939Z,7.00
2019-03-04T19:21:40.188Z,7.10
2019-03-04T19:24:28.378Z,6.90
2019-03-04T19:27:16.609Z,7.00
2019-03-04T19:30:05.362Z,7.00
2019-03-04T19:32:53.553Z,7.00
2019-03-04T19:35:42.141Z,7.00
2019-03-04T19:38:30.336Z,6.90
2019-03-04T19:41:18.987Z,6.90
2019-03-04T19:44:07.546Z,6.80
2019-03-04T19:46:56.141Z,6.80
2019-03-04T19:49:44.379Z,6.90
2019-03-04T19:52:32.893Z,6.90
2019-03-04T19:55:21.520Z,6.80
2019-03-04T19:58:09.727Z,6.90
2019-03-04T20:00:58.232Z,6.80
2019-03-04T20:03:46.712Z,6.80
2019-03-04T20:06:34.949Z,6.80
2019-03-04T20:09:23.699Z,6.80
2019-03-04T20:12:11.933Z,6.80
2019-03-04T20:15:00.309Z,6.80
2019-03-04T20:17:48.522Z,6.80
2019-03-04T20:20:36.753Z,6.90
2019-03-04T20:23:25.199Z,6.90
2019-03-04T20:26:13.706Z,6.90
2019-03-04T20:29:02.191Z,6.90
2019-03-04T20:31:31.378Z,6.80
2019-03-04T20:34:19.652Z,6.80
2019-03-04T20:37:08.003Z,6.80
2019-03-04T20:39:56.748Z,6.80
2019-03-04T20:42:44.968Z,6.80
2019-03-04T20:45:33.280Z,6.80
2019-03-04T20:48:21.832Z,6.70
2019-03-04T20:51:10.445Z,6.80
2019-03-04T20:53:58.651Z,6.80
2019-03-04T20:56:46.900Z,6.80
2019-03-04T20:59:16.099Z,6.80
2019-03-04T21:02:04.647Z,6.90
2019-03-04T21:04:52.832Z,6.80
2019-03-04T21:07:41.167Z,6.90
2019-03-04T21:10:29.380Z,6.80
2019-03-04T21:13:36.636Z,6.70
2019-03-04T21:16:24.850Z,6.70
2019-03-04T21:19:13.138Z,6.70
2019-03-04T21:22:01.551Z,6.70
2019-03-04T21:24:49.747Z,6.70
2019-03-04T21:27:37.956Z,6.80
2019-03-04T21:30:18.967Z,6.80
2019-03-04T21:38:56.931Z,7.10
2019-03-04T21:44:39.076Z,7.00
2019-03-04T21:47:20.320Z,6.90
2019-03-04T21:50:01.091Z,6.90
2019-03-04T21:52:42.089Z,6.90
2019-03-04T21:58:06.311Z,7.10
2019-03-04T22:00:47.429Z,7.00
2019-03-04T22:03:28.159Z,7.20
2019-03-04T22:05:57.703Z,7.10
2019-03-04T22:08:46.200Z,7.10
2019-03-04T22:11:15.311Z,7.10
2019-03-04T22:14:03.571Z,7.10
2019-03-04T22:16:32.729Z,7.10
2019-03-04T22:19:01.859Z,7.00
2019-03-04T22:21:50.208Z,7.10
2019-03-04T22:24:38.671Z,7.10
2019-03-04T22:27:26.901Z,7.20
2019-03-04T22:29:56.047Z,7.20
2019-03-04T22:32:44.461Z,7.10
2019-03-04T22:35:32.932Z,7.10
2019-03-04T22:38:21.133Z,7.20
2019-03-04T22:41:09.405Z,7.20
2019-03-04T22:43:57.706Z,7.30
2019-03-04T22:46:46.192Z,7.20
2019-03-04T22:49:34.482Z,7.20
2019-03-04T22:52:22.734Z,7.30
2019-03-04T22:55:12.451Z,7.30
2019-03-04T22:58:00.957Z,7.30
2019-03-04T23:01:27.588Z,7.20
2019-03-04T23:04:08.607Z,7.10
2019-03-04T23:06:49.314Z,7.10
2019-03-04T23:09:30.198Z,7.20
2019-03-04T23:12:11.277Z,7.20
2019-03-04T23:14:52.501Z,7.20
2019-03-04T23:17:33.056Z,7.20
2019-03-04T23:20:14.086Z,7.20
2019-03-04T23:22:55.104Z,7.20
2019-03-04T23:25:36.300Z,7.30
2019-03-04T23:28:17.210Z,7.30
2019-03-04T23:31:00.010Z,7.20
2019-03-04T23:33:41.143Z,7.20
2019-03-04T23:36:21.751Z,7.20
2019-03-04T23:38:50.923Z,7.20
2019-03-04T23:41:39.109Z,7.20
2019-03-04T23:44:27.611Z,7.20
2019-03-04T23:47:15.806Z,7.30
2019-03-04T23:50:23.103Z,7.30
2019-03-04T23:53:11.269Z,7.20
2019-03-04T23:55:59.475Z,7.20
2019-03-04T23:58:47.837Z,7.30
